Time;durP1;ratioP1;P1;durP2;ratioP2;P2;SDS_P1;SDS_P2;PMS_P1;PMS_P2;Temp;Humidity;BMP_temperature;BMP_pressure;BME280_temperature;BME280_humidity;BME280_pressure;Samples;Min_cycle;Max_cycle;Signal;HPM_P1;HPM_P2
2023/04/01 07:17:43;;;;;;;;;0.00;0.00;;;;;;;;5544217;22;51202;-70
2023/04/01 07:20:27;;;;;;;;;0.75;0.50;;;;;;;;5007580;28;51199;-70
2023/04/01 07:22:55;;;;;;;;;2.00;1.00;;;;;;;;5030867;28;49807;-71
2023/04/01 07:25:25;;;;;;;;;4.00;0.25;;;;;;;;5028264;28;50093;-70
2023/04/01 07:27:51;;;;;;;;;0.00;0.00;;;;;;;;5032072;28;49945;-71
2023/04/01 07:30:18;;;;;;;;;0.75;0.00;;;;;;;;5030027;28;50090;-69
2023/04/01 07:33:02;;;;;;;;;1.50;0.00;;;;;;;;5031597;28;50003;-70
2023/04/01 07:35:31;;;;;;;;;0.00;0.00;;;;;;;;5031836;28;49735;-73
2023/04/01 07:38:05;;;;;;;;;2.00;0.00;;;;;;;;5029300;28;49841;-69
2023/04/01 07:40:40;;;;;;;;;0.25;0.25;;;;;;;;5031049;28;49800;-72
2023/04/01 07:43:05;;;;;;;;;2.50;0.00;;;;;;;;5023654;28;49892;-72
2023/04/01 07:45:34;;;;;;;;;1.00;0.50;;;;;;;;5026930;28;51176;-72
2023/04/01 07:48:21;;;;;;;;;0.00;0.00;;;;;;;;5026225;28;50891;-72
2023/04/01 07:50:52;;;;;;;;;2.00;1.00;;;;;;;;5028575;28;50704;-72
2023/04/01 07:53:20;;;;;;;;;1.00;1.00;;;;;;;;5027786;28;50096;-73
2023/04/01 07:55:45;;;;;;;;;0.00;0.00;;;;;;;;5022809;28;50141;-69
2023/04/01 07:58:10;;;;;;;;;0.00;0.00;;;;;;;;5031509;28;49614;-71
2023/04/01 08:01:00;;;;;;;;;0.00;0.00;;;;;;;;5031042;28;50720;-71
2023/04/01 08:03:35;;;;;;;;;1.50;0.25;;;;;;;;5030611;28;50146;-73
2023/04/01 08:06:05;;;;;;;;;1.50;0.50;;;;;;;;5028703;28;50236;-78
2023/04/01 08:08:34;;;;;;;;;1.00;0.25;;;;;;;;5030305;28;49844;-78
2023/04/01 08:11:17;;;;;;;;;0.00;0.00;;;;;;;;5031113;28;50590;-76
2023/04/01 08:13:48;;;;;;;;;0.00;0.00;;;;;;;;5027345;28;49690;-75
2023/04/01 08:16:31;;;;;;;;;0.00;0.00;;;;;;;;5031456;28;50069;-79
2023/04/01 08:18:59;;;;;;;;;0.00;0.00;;;;;;;;5036591;28;50096;-68
2023/04/01 08:21:28;;;;;;;;;0.00;0.00;;;;;;;;5033496;28;49671;-69
2023/04/01 08:23:56;;;;;;;;;0.25;0.00;;;;;;;;5031700;28;49812;-71
2023/04/01 08:26:32;;;;;;;;;0.25;0.25;;;;;;;;5030293;28;49772;-72
2023/04/01 08:29:08;;;;;;;;;0.00;0.00;;;;;;;;5031020;28;49833;-78
2023/04/01 08:31:51;;;;;;;;;0.50;0.00;;;;;;;;5035533;28;50459;-80
2023/04/01 08:34:19;;;;;;;;;0.00;0.00;;;;;;;;5031215;28;49794;-74
2023/04/01 08:36:50;;;;;;;;;1.25;0.00;;;;;;;;5033447;28;50127;-73
2023/04/01 08:39:18;;;;;;;;;1.00;0.00;;;;;;;;5030889;28;49828;-75
2023/04/01 08:41:52;;;;;;;;;0.00;0.00;;;;;;;;5028572;28;51397;-73
2023/04/01 08:44:23;;;;;;;;;0.50;0.50;;;;;;;;5030536;28;49788;-73
2023/04/01 08:46:48;;;;;;;;;2.75;0.00;;;;;;;;5029814;28;50014;-73
2023/04/01 08:49:13;;;;;;;;;1.00;0.00;;;;;;;;5030774;28;49982;-73
2023/04/01 08:51:57;;;;;;;;;0.00;0.00;;;;;;;;5012771;28;51201;-73
2023/04/01 08:54:29;;;;;;;;;0.00;0.00;;;;;;;;5030171;28;49826;-73
2023/04/01 08:56:57;;;;;;;;;0.00;0.00;;;;;;;;5024768;28;50038;-75
2023/04/01 08:59:25;;;;;;;;;1.00;0.75;;;;;;;;5030343;28;49974;-74
2023/04/01 09:02:25;;;;;;;;;0.00;0.00;;;;;;;;5030188;28;50639;-74
2023/04/01 09:05:00;;;;;;;;;0.00;0.00;;;;;;;;4948819;28;50085;-73
2023/04/01 09:07:28;;;;;;;;;0.75;0.75;;;;;;;;4942793;28;49796;-73
2023/04/01 09:10:11;;;;;;;;;1.50;1.00;;;;;;;;4949046;28;50115;-74
2023/04/01 09:12:46;;;;;;;;;0.50;0.00;;;;;;;;4943824;28;50963;-74
2023/04/01 09:15:12;;;;;;;;;2.00;2.00;;;;;;;;4948421;28;49776;-76
2023/04/01 09:17:43;;;;;;;;;0.00;0.00;;;;;;;;4948717;28;50314;-73
2023/04/01 09:20:31;;;;;;;;;0.00;0.00;;;;;;;;4948384;28;50673;-74
2023/04/01 09:22:56;;;;;;;;;1.50;0.50;;;;;;;;4938461;28;51304;-74
2023/04/01 09:25:24;;;;;;;;;2.25;1.25;;;;;;;;4948125;28;49668;-73
2023/04/01 09:28:08;;;;;;;;;0.25;0.00;;;;;;;;4943828;28;50368;-77
2023/04/01 09:30:46;;;;;;;;;0.00;0.00;;;;;;;;4948377;28;50308;-75
2023/04/01 09:33:22;;;;;;;;;1.00;0.00;;;;;;;;4946798;28;50734;-75
2023/04/01 09:36:05;;;;;;;;;1.75;0.00;;;;;;;;4950004;28;50174;-74
2023/04/01 09:39:00;;;;;;;;;3.00;1.00;;;;;;;;4980958;28;49867;-75
2023/04/01 09:41:53;;;;;;;;;2.00;1.00;;;;;;;;5016083;28;50042;-75
2023/04/01 09:44:26;;;;;;;;;1.75;0.75;;;;;;;;5028690;28;49726;-76
2023/04/01 09:47:15;;;;;;;;;0.75;0.75;;;;;;;;5029294;28;49793;-76
2023/04/01 09:49:58;;;;;;;;;1.00;0.00;;;;;;;;5029267;28;51014;-76
2023/04/01 09:52:33;;;;;;;;;2.00;0.75;;;;;;;;5028106;28;49963;-76
2023/04/01 09:55:06;;;;;;;;;0.75;0.75;;;;;;;;5027981;28;50916;-76
2023/04/01 09:57:50;;;;;;;;;1.50;0.00;;;;;;;;5023550;28;49712;-73
2023/04/01 10:00:18;;;;;;;;;0.00;0.00;;;;;;;;5025559;28;49693;-73
2023/04/01 10:02:46;;;;;;;;;1.00;1.00;;;;;;;;5033251;28;50128;-73
2023/04/01 10:05:29;;;;;;;;;1.00;1.00;;;;;;;;5027993;28;50887;-73
2023/04/01 10:08:13;;;;;;;;;1.00;1.00;;;;;;;;5028215;28;50132;-74
2023/04/01 10:10:47;;;;;;;;;0.00;0.00;;;;;;;;5024525;28;49642;-74
2023/04/01 10:13:20;;;;;;;;;2.00;1.00;;;;;;;;5027261;28;49588;-73
2023/04/01 10:16:04;;;;;;;;;0.00;0.00;;;;;;;;5028480;28;49756;-73
2023/04/01 10:18:46;;;;;;;;;1.50;0.00;;;;;;;;5039415;28;50058;-73
2023/04/01 10:21:30;;;;;;;;;0.75;0.75;;;;;;;;5049309;28;49781;-74
2023/04/01 10:24:14;;;;;;;;;0.00;0.00;;;;;;;;5057386;28;49982;-74
2023/04/01 10:26:39;;;;;;;;;2.00;0.00;;;;;;;;5059345;28;49831;-73
2023/04/01 10:29:25;;;;;;;;;0.00;0.00;;;;;;;;5046585;28;49941;-74
2023/04/01 10:31:50;;;;;;;;;0.00;0.00;;;;;;;;5050754;28;49723;-78
2023/04/01 10:34:24;;;;;;;;;0.75;0.00;;;;;;;;5049514;28;49690;-73
2023/04/01 10:37:03;;;;;;;;;0.00;0.00;;;;;;;;5049100;28;49771;-73
2023/04/01 10:39:34;;;;;;;;;0.00;0.00;;;;;;;;5051731;28;50098;-72
2023/04/01 10:42:14;;;;;;;;;0.25;0.00;;;;;;;;5059184;28;50048;-71
2023/04/01 10:44:45;;;;;;;;;0.00;0.00;;;;;;;;5055867;28;50101;-73
2023/04/01 10:47:22;;;;;;;;;1.25;0.00;;;;;;;;5048476;28;50674;-73
2023/04/01 10:49:47;;;;;;;;;1.00;0.75;;;;;;;;5048497;28;50172;-74
2023/04/01 10:52:32;;;;;;;;;0.00;0.00;;;;;;;;5048577;28;50148;-72
2023/04/01 10:54:59;;;;;;;;;0.25;0.25;;;;;;;;5048457;28;49979;-73
2023/04/01 10:57:31;;;;;;;;;0.00;0.00;;;;;;;;5048612;28;50077;-69
2023/04/01 11:00:22;;;;;;;;;0.25;0.25;;;;;;;;5045184;28;49789;-70
2023/04/01 11:02:50;;;;;;;;;0.00;0.00;;;;;;;;5049732;28;49831;-68
2023/04/01 11:05:42;;;;;;;;;1.00;0.00;;;;;;;;5049198;28;49980;-71
2023/04/01 11:08:07;;;;;;;;;0.25;0.00;;;;;;;;5049226;28;51553;-72
2023/04/01 11:10:51;;;;;;;;;0.00;0.00;;;;;;;;5054335;28;49949;-74
2023/04/01 11:13:34;;;;;;;;;1.00;0.00;;;;;;;;5049165;28;50275;-69
2023/04/01 11:16:28;;;;;;;;;1.00;0.00;;;;;;;;5062177;28;49993;-68
2023/04/01 11:18:54;;;;;;;;;1.00;1.00;;;;;;;;5033826;28;49886;-72
2023/04/01 11:21:22;;;;;;;;;0.00;0.00;;;;;;;;5047596;28;50108;-70
2023/04/01 11:23:47;;;;;;;;;0.50;0.00;;;;;;;;5052870;28;49720;-70
2023/04/01 11:26:15;;;;;;;;;0.00;0.00;;;;;;;;5052709;28;50019;-69
2023/04/01 11:28:59;;;;;;;;;0.25;0.25;;;;;;;;5053838;28;51179;-70
2023/04/01 11:31:30;;;;;;;;;0.00;0.00;;;;;;;;5049180;28;50058;-70
2023/04/01 11:34:07;;;;;;;;;0.00;0.00;;;;;;;;5046551;28;49712;-70
2023/04/01 11:36:51;;;;;;;;;0.00;0.00;;;;;;;;5039380;28;50040;-72
2023/04/01 11:39:28;;;;;;;;;0.50;0.00;;;;;;;;5041695;28;51700;-66
2023/04/01 11:42:01;;;;;;;;;0.25;0.25;;;;;;;;5039700;28;49945;-67
2023/04/01 11:44:28;;;;;;;;;0.00;0.00;;;;;;;;5038198;28;49831;-67
2023/04/01 11:47:20;;;;;;;;;0.00;0.00;;;;;;;;5045982;28;49736;-68
2023/04/01 11:50:04;;;;;;;;;0.00;0.00;;;;;;;;5012632;28;49856;-67
2023/04/01 11:52:47;;;;;;;;;1.25;0.00;;;;;;;;5041252;28;50146;-67
2023/04/01 11:55:22;;;;;;;;;0.00;0.00;;;;;;;;5047434;28;49935;-67
2023/04/01 11:57:50;;;;;;;;;1.00;0.00;;;;;;;;5043730;28;50122;-67
2023/04/01 12:00:25;;;;;;;;;0.75;0.75;;;;;;;;5052249;28;50769;-67
2023/04/01 12:03:02;;;;;;;;;0.75;0.00;;;;;;;;5040663;28;49769;-66
2023/04/01 12:05:34;;;;;;;;;0.25;0.25;;;;;;;;5041601;28;49867;-66
2023/04/01 12:08:18;;;;;;;;;0.00;0.00;;;;;;;;5040527;28;50164;-67
2023/04/01 12:10:43;;;;;;;;;0.25;0.25;;;;;;;;5040195;28;50653;-66
2023/04/01 12:13:19;;;;;;;;;1.00;0.20;;;;;;;;5040528;28;50455;-67
2023/04/01 12:15:44;;;;;;;;;0.50;0.00;;;;;;;;5038610;28;49731;-67
2023/04/01 12:18:23;;;;;;;;;0.50;0.50;;;;;;;;5041848;28;50107;-67
2023/04/01 12:20:50;;;;;;;;;2.00;0.75;;;;;;;;5039344;28;50205;-69
2023/04/01 12:23:33;;;;;;;;;0.00;0.00;;;;;;;;5041443;28;49740;-67
2023/04/01 12:26:04;;;;;;;;;0.00;0.00;;;;;;;;5040103;28;49812;-67
2023/04/01 12:28:43;;;;;;;;;0.00;0.00;;;;;;;;5042353;28;50415;-74
2023/04/01 12:31:28;;;;;;;;;0.00;0.00;;;;;;;;5023957;28;51263;-75
2023/04/01 12:34:06;;;;;;;;;1.00;1.00;;;;;;;;5040688;28;50186;-74
2023/04/01 12:36:31;;;;;;;;;1.00;0.00;;;;;;;;5043293;28;50150;-74
2023/04/01 12:38:56;;;;;;;;;1.00;0.00;;;;;;;;5039616;28;49837;-74
2023/04/01 12:41:27;;;;;;;;;0.00;0.00;;;;;;;;5040154;28;50115;-74
2023/04/01 12:43:58;;;;;;;;;0.00;0.00;;;;;;;;5039963;28;50258;-74
2023/04/01 12:46:54;;;;;;;;;0.00;0.00;;;;;;;;5043161;28;50020;-77
2023/04/01 12:49:29;;;;;;;;;0.00;0.00;;;;;;;;5042035;28;49770;-77
2023/04/01 12:52:03;;;;;;;;;1.00;0.00;;;;;;;;5038005;28;50265;-76
2023/04/01 12:54:35;;;;;;;;;0.00;0.00;;;;;;;;5042523;28;49765;-76
2023/04/01 12:57:32;;;;;;;;;1.00;0.00;;;;;;;;5039515;28;49835;-76
2023/04/01 13:00:13;;;;;;;;;0.00;0.00;;;;;;;;5001784;28;50008;-75
2023/04/01 13:02:38;;;;;;;;;0.00;0.00;;;;;;;;5040411;28;49808;-76
2023/04/01 13:05:09;;;;;;;;;0.00;0.00;;;;;;;;5042843;28;50046;-76
2023/04/01 13:07:40;;;;;;;;;0.00;0.00;;;;;;;;5040136;28;49823;-68
2023/04/01 13:10:11;;;;;;;;;0.00;0.00;;;;;;;;5042438;28;49997;-69
2023/04/01 13:12:37;;;;;;;;;0.00;0.00;;;;;;;;5041347;28;49823;-75
2023/04/01 13:15:08;;;;;;;;;0.00;0.00;;;;;;;;5039450;28;49794;-76
2023/04/01 13:17:52;;;;;;;;;0.00;0.00;;;;;;;;5040737;28;49782;-74
2023/04/01 13:20:25;;;;;;;;;0.50;0.00;;;;;;;;5039372;28;49814;-73
2023/04/01 13:23:09;;;;;;;;;1.00;0.00;;;;;;;;5039497;28;49835;-75
2023/04/01 13:25:49;;;;;;;;;0.00;0.00;;;;;;;;5041895;28;50109;-76
2023/04/01 13:28:17;;;;;;;;;0.00;0.00;;;;;;;;5043042;28;49884;-73
2023/04/01 13:30:45;;;;;;;;;0.00;0.00;;;;;;;;5040520;28;49988;-74
2023/04/01 13:33:32;;;;;;;;;0.00;0.00;;;;;;;;5039989;28;50436;-75
2023/04/01 13:36:11;;;;;;;;;0.25;0.00;;;;;;;;5040021;28;50401;-74
2023/04/01 13:38:58;;;;;;;;;0.00;0.00;;;;;;;;5039110;28;49688;-76
2023/04/01 13:41:42;;;;;;;;;0.00;0.00;;;;;;;;5042449;28;50099;-77
2023/04/01 13:44:22;;;;;;;;;0.00;0.00;;;;;;;;5039725;28;50091;-74
2023/04/01 13:47:08;;;;;;;;;0.00;0.00;;;;;;;;5038799;28;49818;-75
2023/04/01 13:49:52;;;;;;;;;0.00;0.00;;;;;;;;5042194;28;49796;-76
2023/04/01 13:52:18;;;;;;;;;0.25;0.00;;;;;;;;5047326;28;50051;-76
2023/04/01 13:55:05;;;;;;;;;0.00;0.00;;;;;;;;5049288;28;50213;-78
2023/04/01 13:57:43;;;;;;;;;0.00;0.00;;;;;;;;5045965;28;50187;-77
2023/04/01 14:00:11;;;;;;;;;0.00;0.00;;;;;;;;5045932;28;50086;-77
2023/04/01 14:02:44;;;;;;;;;0.00;0.00;;;;;;;;5048869;28;49855;-77
2023/04/01 14:05:12;;;;;;;;;0.00;0.00;;;;;;;;5047814;28;49755;-77
2023/04/01 14:07:50;;;;;;;;;1.75;0.00;;;;;;;;5047333;28;49861;-78
2023/04/01 14:10:20;;;;;;;;;0.00;0.00;;;;;;;;5044362;28;49877;-77
2023/04/01 14:12:48;;;;;;;;;0.75;0.75;;;;;;;;5048000;28;49717;-77
2023/04/01 14:15:29;;;;;;;;;1.00;0.00;;;;;;;;5042283;28;50140;-76
2023/04/01 14:18:02;;;;;;;;;0.00;0.00;;;;;;;;5042420;28;50017;-75
2023/04/01 14:20:48;;;;;;;;;0.00;0.00;;;;;;;;5038163;28;50238;-77
2023/04/01 14:23:24;;;;;;;;;0.00;0.00;;;;;;;;5047074;28;51016;-79
2023/04/01 14:25:52;;;;;;;;;0.00;0.00;;;;;;;;5045101;28;50968;-76
2023/04/01 14:28:36;;;;;;;;;1.00;0.25;;;;;;;;5048138;28;50048;-76
2023/04/01 14:31:20;;;;;;;;;1.00;1.00;;;;;;;;5055960;28;50233;-76
2023/04/01 14:33:51;;;;;;;;;0.25;0.25;;;;;;;;5044670;28;50063;-77
2023/04/01 14:36:25;;;;;;;;;0.75;0.50;;;;;;;;5047513;28;52384;-77
2023/04/01 14:39:00;;;;;;;;;0.00;0.00;;;;;;;;5042902;28;49970;-77
2023/04/01 14:41:44;;;;;;;;;1.50;1.00;;;;;;;;5044653;28;49740;-76
2023/04/01 14:44:12;;;;;;;;;0.00;0.00;;;;;;;;5044053;28;50279;-75
2023/04/01 14:46:43;;;;;;;;;1.00;1.00;;;;;;;;5047276;28;50538;-76
2023/04/01 14:49:27;;;;;;;;;0.50;0.50;;;;;;;;5046759;28;50694;-76
2023/04/01 14:51:53;;;;;;;;;1.00;0.00;;;;;;;;5058843;28;49782;-79
2023/04/01 14:54:31;;;;;;;;;2.00;0.00;;;;;;;;5040867;28;49923;-76
2023/04/01 14:57:23;;;;;;;;;0.00;0.00;;;;;;;;5045627;28;50501;-76
2023/04/01 14:59:53;;;;;;;;;0.00;0.00;;;;;;;;5037957;28;49897;-76
2023/04/01 15:02:37;;;;;;;;;0.00;0.00;;;;;;;;5048367;28;50240;-76
2023/04/01 15:05:34;;;;;;;;;0.25;0.00;;;;;;;;5043385;28;49979;-77
2023/04/01 15:08:10;;;;;;;;;1.75;1.00;;;;;;;;5016346;28;50684;-75
2023/04/01 15:10:41;;;;;;;;;2.50;0.50;;;;;;;;5057842;28;49807;-76
2023/04/01 15:13:09;;;;;;;;;0.00;0.00;;;;;;;;5045475;28;49848;-77
2023/04/01 15:15:47;;;;;;;;;0.00;0.00;;;;;;;;5042453;28;49757;-76
2023/04/01 15:18:47;;;;;;;;;1.00;0.00;;;;;;;;5045754;28;50941;-78
2023/04/01 15:21:18;;;;;;;;;1.00;1.00;;;;;;;;5008520;28;50194;-82
2023/04/01 15:23:46;;;;;;;;;2.00;1.00;;;;;;;;5001358;28;49848;-77
2023/04/01 15:26:11;;;;;;;;;0.50;0.50;;;;;;;;5007218;28;49856;-77
2023/04/01 15:28:36;;;;;;;;;0.00;0.00;;;;;;;;5014141;28;50148;-77
2023/04/01 15:31:05;;;;;;;;;1.00;1.00;;;;;;;;5010757;28;49750;-78
2023/04/01 15:33:39;;;;;;;;;0.75;0.75;;;;;;;;5004797;28;49729;-79
2023/04/01 15:36:04;;;;;;;;;0.00;0.00;;;;;;;;4991506;28;49972;-79
2023/04/01 15:38:45;;;;;;;;;1.00;1.00;;;;;;;;5003204;28;50539;-77
2023/04/01 15:41:23;;;;;;;;;3.00;1.25;;;;;;;;5004627;28;50393;-80
2023/04/01 15:43:49;;;;;;;;;1.50;1.00;;;;;;;;5003532;28;50065;-76
2023/04/01 15:46:35;;;;;;;;;1.75;0.00;;;;;;;;5003872;28;50252;-74
2023/04/01 15:49:04;;;;;;;;;0.00;0.00;;;;;;;;5001955;28;51240;-75
2023/04/01 15:51:41;;;;;;;;;0.00;0.00;;;;;;;;5001619;28;49883;-74
2023/04/01 15:54:27;;;;;;;;;2.25;1.00;;;;;;;;5005179;28;50082;-74
2023/04/01 15:56:58;;;;;;;;;0.00;0.00;;;;;;;;5046621;28;49989;-74
2023/04/01 15:59:26;;;;;;;;;1.00;1.00;;;;;;;;5044798;28;50189;-74
2023/04/01 16:02:10;;;;;;;;;1.00;1.00;;;;;;;;5046958;28;50184;-73
2023/04/01 16:04:48;;;;;;;;;2.00;2.00;;;;;;;;5028962;28;50171;-74
2023/04/01 16:07:32;;;;;;;;;1.25;1.25;;;;;;;;5050518;28;50859;-73
2023/04/01 16:10:16;;;;;;;;;1.00;1.00;;;;;;;;5054600;28;49955;-73
2023/04/01 16:12:47;;;;;;;;;1.00;1.00;;;;;;;;5043258;28;49930;-73
2023/04/01 16:15:15;;;;;;;;;0.00;0.00;;;;;;;;5047457;28;50467;-75
2023/04/01 16:18:06;;;;;;;;;1.00;1.00;;;;;;;;5054558;28;50115;-74
2023/04/01 16:20:43;;;;;;;;;1.00;1.00;;;;;;;;5040194;28;50061;-78
2023/04/01 16:23:14;;;;;;;;;1.75;0.75;;;;;;;;5045899;28;49806;-77
2023/04/01 16:25:41;;;;;;;;;0.00;0.00;;;;;;;;5050322;28;49836;-78
2023/04/01 16:28:25;;;;;;;;;1.50;0.75;;;;;;;;5050915;28;49912;-78
2023/04/01 16:31:04;;;;;;;;;2.50;1.50;;;;;;;;5047830;28;51111;-76
2023/04/01 16:33:37;;;;;;;;;1.00;0.00;;;;;;;;5048083;28;50026;-73
2023/04/01 16:36:05;;;;;;;;;0.25;0.25;;;;;;;;5042946;28;49858;-74
2023/04/01 16:38:31;;;;;;;;;0.75;0.75;;;;;;;;5047656;28;50096;-74
2023/04/01 16:41:06;;;;;;;;;2.00;1.00;;;;;;;;5049861;28;49771;-74
2023/04/01 16:43:34;;;;;;;;;0.00;0.00;;;;;;;;5041973;28;49801;-73
2023/04/01 16:46:06;;;;;;;;;2.25;1.00;;;;;;;;5049654;28;49641;-73
2023/04/01 16:48:45;;;;;;;;;1.00;1.00;;;;;;;;5050685;28;49697;-72
2023/04/01 16:51:15;;;;;;;;;0.75;0.75;;;;;;;;5045393;28;50896;-73
2023/04/01 16:53:41;;;;;;;;;2.00;0.00;;;;;;;;5049946;28;49733;-74
2023/04/01 16:56:16;;;;;;;;;0.00;0.00;;;;;;;;5049155;28;49914;-74
2023/04/01 16:58:43;;;;;;;;;1.00;1.00;;;;;;;;5041693;28;50041;-72
2023/04/01 17:01:08;;;;;;;;;0.00;0.00;;;;;;;;5045080;28;50150;-74
2023/04/01 17:03:38;;;;;;;;;0.00;0.00;;;;;;;;5046157;28;50154;-74
2023/04/01 17:06:15;;;;;;;;;0.50;0.50;;;;;;;;5043372;28;49834;-74
2023/04/01 17:08:56;;;;;;;;;0.50;0.50;;;;;;;;5043428;28;49819;-74
2023/04/01 17:11:24;;;;;;;;;0.25;0.00;;;;;;;;5047054;28;51032;-73
2023/04/01 17:14:08;;;;;;;;;1.25;0.00;;;;;;;;5042896;28;50095;-73
2023/04/01 17:16:42;;;;;;;;;1.00;1.00;;;;;;;;5042887;28;49796;-73
2023/04/01 17:19:08;;;;;;;;;0.50;0.50;;;;;;;;5053445;28;50157;-74
2023/04/01 17:21:33;;;;;;;;;1.25;0.25;;;;;;;;5047864;28;50391;-74
2023/04/01 17:24:04;;;;;;;;;1.40;1.40;;;;;;;;5050408;28;50092;-74
2023/04/01 17:26:39;;;;;;;;;1.00;0.75;;;;;;;;5047544;28;50113;-74
2023/04/01 17:29:22;;;;;;;;;3.00;1.50;;;;;;;;5048850;28;49948;-73
2023/04/01 17:32:06;;;;;;;;;1.00;1.00;;;;;;;;5048851;28;50100;-73
2023/04/01 17:34:37;;;;;;;;;1.00;1.00;;;;;;;;5036044;28;49931;-73
2023/04/01 17:37:19;;;;;;;;;2.00;2.00;;;;;;;;5039447;28;50049;-73
2023/04/01 17:40:03;;;;;;;;;3.00;1.00;;;;;;;;5038240;28;49951;-73
2023/04/01 17:42:52;;;;;;;;;1.00;1.00;;;;;;;;5050769;28;50900;-73
2023/04/01 17:45:26;;;;;;;;;1.75;1.75;;;;;;;;5050410;28;50003;-72
2023/04/01 17:48:04;;;;;;;;;4.00;2.00;;;;;;;;5046763;28;49974;-71
2023/04/01 17:50:53;;;;;;;;;2.25;1.75;;;;;;;;5048229;28;50014;-73
2023/04/01 17:53:18;;;;;;;;;1.50;1.50;;;;;;;;5045987;28;50905;-73
2023/04/01 17:56:02;;;;;;;;;3.20;2.20;;;;;;;;5031665;28;49828;-73
2023/04/01 17:58:29;;;;;;;;;1.25;1.25;;;;;;;;5045622;28;49932;-73
2023/04/01 18:00:58;;;;;;;;;3.00;3.00;;;;;;;;5048926;28;49993;-73
2023/04/01 18:03:44;;;;;;;;;1.00;1.00;;;;;;;;5053452;28;50812;-71
2023/04/01 18:06:09;;;;;;;;;1.00;1.00;;;;;;;;5049946;28;49762;-75
2023/04/01 18:08:53;;;;;;;;;0.00;0.00;;;;;;;;5047650;28;49929;-70
2023/04/01 18:11:35;;;;;;;;;3.25;2.25;;;;;;;;5056185;28;49789;-82
2023/04/01 18:14:15;;;;;;;;;3.00;2.00;;;;;;;;5043637;28;50023;-77
2023/04/01 18:16:50;;;;;;;;;3.00;3.00;;;;;;;;5051133;28;49808;-72
2023/04/01 18:19:22;;;;;;;;;1.75;1.75;;;;;;;;5054130;28;49804;-72
2023/04/01 18:21:53;;;;;;;;;1.25;1.25;;;;;;;;5046026;28;49943;-76
2023/04/01 18:24:23;;;;;;;;;3.00;3.00;;;;;;;;5047111;28;50833;-75
2023/04/01 18:27:11;;;;;;;;;2.00;2.00;;;;;;;;5047857;28;49767;-74
2023/04/01 18:29:57;;;;;;;;;1.00;1.00;;;;;;;;5045988;28;50240;-76
2023/04/01 18:32:29;;;;;;;;;1.00;1.00;;;;;;;;5040037;28;50460;-76
2023/04/01 18:35:14;;;;;;;;;0.50;0.00;;;;;;;;5048235;28;50631;-73
2023/04/01 18:37:44;;;;;;;;;2.75;1.25;;;;;;;;5048598;28;49729;-76
2023/04/01 18:40:27;;;;;;;;;2.00;2.00;;;;;;;;5048034;28;50053;-74
2023/04/01 18:42:59;;;;;;;;;3.75;2.25;;;;;;;;5048596;28;49942;-75
2023/04/01 18:45:31;;;;;;;;;2.25;2.25;;;;;;;;5048790;28;49891;-77
2023/04/01 18:48:08;;;;;;;;;1.75;1.75;;;;;;;;5048603;28;49699;-74
2023/04/01 18:50:48;;;;;;;;;1.00;1.00;;;;;;;;5048635;28;49781;-76
2023/04/01 18:53:30;;;;;;;;;3.25;2.50;;;;;;;;5048718;28;49694;-77
2023/04/01 18:56:01;;;;;;;;;1.00;1.00;;;;;;;;5048481;28;50966;-74
2023/04/01 18:58:33;;;;;;;;;5.00;2.00;;;;;;;;5048222;28;49811;-75
2023/04/01 19:01:10;;;;;;;;;2.25;2.25;;;;;;;;5048304;28;50098;-75
2023/04/01 19:03:54;;;;;;;;;2.00;2.00;;;;;;;;5048320;28;50049;-79
2023/04/01 19:06:29;;;;;;;;;1.00;1.00;;;;;;;;5047810;28;50459;-75
2023/04/01 19:08:54;;;;;;;;;2.00;2.00;;;;;;;;5044366;28;49776;-73
2023/04/01 19:11:49;;;;;;;;;2.50;1.25;;;;;;;;5055105;28;49821;-75
2023/04/01 19:14:39;;;;;;;;;2.00;0.00;;;;;;;;5019748;28;49749;-78
2023/04/01 19:17:25;;;;;;;;;1.75;1.75;;;;;;;;5054449;28;50587;-74
2023/04/01 19:19:51;;;;;;;;;2.25;2.00;;;;;;;;5051524;28;50118;-74
2023/04/01 19:22:31;;;;;;;;;3.00;3.00;;;;;;;;5054453;28;49872;-74
2023/04/01 19:25:03;;;;;;;;;3.50;2.50;;;;;;;;5054595;28;49738;-75
2023/04/01 19:27:33;;;;;;;;;3.00;2.00;;;;;;;;5052251;28;50805;-74
2023/04/01 19:30:08;;;;;;;;;3.00;2.00;;;;;;;;5054892;28;49760;-75
2023/04/01 19:32:33;;;;;;;;;2.00;2.00;;;;;;;;5054830;28;49787;-74
2023/04/01 19:34:58;;;;;;;;;4.00;1.00;;;;;;;;5053967;28;50131;-74
2023/04/01 19:37:44;;;;;;;;;2.50;2.50;;;;;;;;5052639;28;50683;-76
2023/04/01 19:40:18;;;;;;;;;2.75;2.25;;;;;;;;5051904;28;49937;-74
2023/04/01 19:42:53;;;;;;;;;2.50;2.50;;;;;;;;5054331;28;49722;-74
2023/04/01 19:45:39;;;;;;;;;2.00;2.00;;;;;;;;5054503;28;50054;-75
2023/04/01 19:48:20;;;;;;;;;3.00;2.00;;;;;;;;5049143;28;51133;-75
2023/04/01 19:50:46;;;;;;;;;5.00;4.50;;;;;;;;5054185;28;50061;-75
2023/04/01 19:53:19;;;;;;;;;5.00;4.00;;;;;;;;5053418;28;50081;-75
2023/04/01 19:55:52;;;;;;;;;4.50;4.00;;;;;;;;5054885;28;50090;-74
2023/04/01 19:58:33;;;;;;;;;2.00;2.00;;;;;;;;5052580;28;49828;-74
2023/04/01 20:00:58;;;;;;;;;4.00;4.00;;;;;;;;5054619;28;50072;-75
2023/04/01 20:03:30;;;;;;;;;2.00;2.00;;;;;;;;5054366;28;49912;-74
2023/04/01 20:05:55;;;;;;;;;5.00;4.00;;;;;;;;5053078;28;51510;-74
2023/04/01 20:08:59;;;;;;;;;5.00;4.00;;;;;;;;5053859;28;50062;-75
2023/04/01 20:11:27;;;;;;;;;3.75;3.75;;;;;;;;4973817;28;50271;-77
2023/04/01 20:14:04;;;;;;;;;5.00;4.50;;;;;;;;4986343;28;49770;-75
2023/04/01 20:16:47;;;;;;;;;6.75;5.50;;;;;;;;4991359;28;50072;-75
2023/04/01 20:19:13;;;;;;;;;4.00;4.00;;;;;;;;4990595;28;50169;-74
2023/04/01 20:21:43;;;;;;;;;6.50;4.75;;;;;;;;4982522;28;50137;-75
2023/04/01 20:24:14;;;;;;;;;4.00;4.00;;;;;;;;4985772;28;49939;-75
2023/04/01 20:26:41;;;;;;;;;10.75;7.25;;;;;;;;4988347;28;49826;-75
2023/04/01 20:29:15;;;;;;;;;4.75;4.75;;;;;;;;4984128;28;50998;-75
2023/04/01 20:31:41;;;;;;;;;6.50;6.50;;;;;;;;4965603;28;49823;-74
2023/04/01 20:34:19;;;;;;;;;5.00;5.00;;;;;;;;4986597;28;50432;-74
2023/04/01 20:36:44;;;;;;;;;4.00;4.00;;;;;;;;4988388;28;50107;-73
2023/04/01 20:39:10;;;;;;;;;5.00;4.00;;;;;;;;4992788;28;50284;-71
2023/04/01 20:41:36;;;;;;;;;4.75;4.75;;;;;;;;5000053;28;50072;-72
2023/04/01 20:44:01;;;;;;;;;6.00;4.50;;;;;;;;5049646;28;49790;-73
2023/04/01 20:46:29;;;;;;;;;8.00;5.00;;;;;;;;5050206;28;49809;-75
2023/04/01 21:23:10;;;;;;;;;11.00;5.00;;;;;;;;5297481;22;51710;-69
2023/04/01 21:25:51;;;;;;;;;8.75;7.75;;;;;;;;5026782;28;50035;-69
2023/04/01 21:28:16;;;;;;;;;9.25;8.50;;;;;;;;5033575;28;50087;-68
2023/04/01 21:31:00;;;;;;;;;5.50;4.50;;;;;;;;5029293;28;51146;-68
2023/04/01 21:33:39;;;;;;;;;8.50;8.25;;;;;;;;5031324;28;49726;-69
2023/04/01 21:36:15;;;;;;;;;9.75;6.25;;;;;;;;5031782;28;49786;-69
2023/04/01 21:38:43;;;;;;;;;9.00;7.25;;;;;;;;5033819;28;50023;-71
2023/04/01 21:41:11;;;;;;;;;9.50;8.50;;;;;;;;5027546;28;50700;-68
2023/04/01 21:43:36;;;;;;;;;6.25;4.25;;;;;;;;5029357;28;49757;-69
2023/04/01 21:46:20;;;;;;;;;5.00;5.00;;;;;;;;5031578;28;50085;-69
2023/04/01 21:48:59;;;;;;;;;4.00;3.00;;;;;;;;5029851;28;49967;-69
2023/04/01 21:51:43;;;;;;;;;8.50;6.25;;;;;;;;5029253;28;50090;-69
2023/04/01 21:54:27;;;;;;;;;8.00;8.00;;;;;;;;5032150;28;49693;-69
2023/04/01 21:57:03;;;;;;;;;7.25;7.25;;;;;;;;5029527;28;49765;-70
2023/04/01 21:59:47;;;;;;;;;8.75;8.00;;;;;;;;5033710;28;49789;-69
2023/04/01 22:02:30;;;;;;;;;8.75;8.50;;;;;;;;5029685;28;49831;-69
2023/04/01 22:05:11;;;;;;;;;9.25;9.25;;;;;;;;5030315;28;49797;-69
2023/04/01 22:07:54;;;;;;;;;9.25;7.50;;;;;;;;5028875;28;49808;-72
2023/04/01 22:10:38;;;;;;;;;9.25;8.75;;;;;;;;5033405;28;49805;-70
2023/04/01 22:13:13;;;;;;;;;10.00;8.75;;;;;;;;5028558;28;50685;-69
2023/04/01 22:16:03;;;;;;;;;5.75;5.75;;;;;;;;5026580;28;49942;-69
2023/04/01 22:18:37;;;;;;;;;9.00;6.50;;;;;;;;5028384;28;49760;-69
2023/04/01 22:21:07;;;;;;;;;13.75;6.50;;;;;;;;5033366;28;49705;-70
2023/04/01 22:23:39;;;;;;;;;5.75;5.00;;;;;;;;5045757;28;49924;-70
2023/04/01 22:26:10;;;;;;;;;9.75;9.00;;;;;;;;5051739;28;50042;-70
2023/04/01 22:28:39;;;;;;;;;11.50;9.75;;;;;;;;5056122;28;50048;-70
2023/04/01 22:31:06;;;;;;;;;9.75;9.75;;;;;;;;5048715;28;50003;-70
2023/04/01 22:33:40;;;;;;;;;11.25;8.50;;;;;;;;5051532;28;50142;-69
2023/04/01 22:36:06;;;;;;;;;9.75;8.75;;;;;;;;5050467;28;49873;-71
2023/04/01 22:38:33;;;;;;;;;10.00;8.20;;;;;;;;5053908;28;50039;-70
2023/04/01 22:40:59;;;;;;;;;10.00;8.50;;;;;;;;5048601;28;49731;-70
2023/04/01 22:43:35;;;;;;;;;8.00;6.25;;;;;;;;5046944;28;50995;-70
2023/04/01 22:46:02;;;;;;;;;10.00;8.75;;;;;;;;5047168;28;49748;-70
2023/04/01 22:48:38;;;;;;;;;9.25;9.00;;;;;;;;5057020;28;49726;-70
2023/04/01 22:51:07;;;;;;;;;6.00;4.50;;;;;;;;5053509;28;49918;-70
2023/04/01 22:54:08;;;;;;;;;9.75;8.00;;;;;;;;5051188;28;49965;-71
2023/04/01 22:56:43;;;;;;;;;7.00;7.00;;;;;;;;4997095;28;49731;-70
2023/04/01 22:59:23;;;;;;;;;9.75;6.00;;;;;;;;4995350;28;49757;-70
2023/04/01 23:01:56;;;;;;;;;9.50;7.00;;;;;;;;4994747;28;49746;-70
2023/04/01 23:04:23;;;;;;;;;8.50;8.50;;;;;;;;4990911;28;51325;-70
2023/04/01 23:06:52;;;;;;;;;8.25;8.25;;;;;;;;4989660;28;49799;-70
2023/04/01 23:09:19;;;;;;;;;11.00;9.50;;;;;;;;4991809;28;50253;-70
2023/04/01 23:12:09;;;;;;;;;7.50;7.25;;;;;;;;4983417;28;50146;-70
2023/04/01 23:14:44;;;;;;;;;9.50;9.50;;;;;;;;4988220;28;50587;-70
2023/04/01 23:17:15;;;;;;;;;9.75;9.75;;;;;;;;4991296;28;50972;-73
2023/04/01 23:19:41;;;;;;;;;9.00;7.50;;;;;;;;4999429;28;50222;-70
2023/04/01 23:22:06;;;;;;;;;8.00;8.00;;;;;;;;4997099;28;50250;-70